Time;durP1;ratioP1;P1;durP2;ratioP2;P2;SDS_P1;SDS_P2;PMS_P1;PMS_P2;Temp;Humidity;BMP_temperature;BMP_pressure;BME280_temperature;BME280_humidity;BME280_pressure;Samples;Min_cycle;Max_cycle;Signal;HPM_P1;HPM_P2
2021/12/23 00:02:56;;;;;;;18.10;12.10;;;-3276.70;68.60;;;;;;6332855;28;20193;-67
2021/12/23 00:05:57;;;;;;;15.40;11.03;;;-3276.60;68.90;;;;;;6334318;28;20199;-68
2021/12/23 00:09:00;;;;;;;14.47;10.20;;;-3276.60;68.20;;;;;;6334016;28;20192;-69
2021/12/23 00:12:01;;;;;;;14.73;10.93;;;-3276.60;67.50;;;;;;6333465;28;20229;-68
2021/12/23 00:15:03;;;;;;;17.67;11.67;;;-3276.60;70.40;;;;;;6325796;28;20215;-69
2021/12/23 00:24:30;;;;;;;15.47;10.77;;;-3276.50;69.60;;;;;;6332227;28;20198;-68
2021/12/23 00:27:30;;;;;;;17.90;11.67;;;-3276.50;69.80;;;;;;6328675;28;20197;-69
2021/12/23 00:30:32;;;;;;;16.50;10.43;;;-3276.40;69.30;;;;;;6333973;28;20194;-68
2021/12/23 00:33:35;;;;;;;15.87;10.30;;;-3276.40;69.20;;;;;;6330062;28;20190;-68
2021/12/23 00:36:38;;;;;;;16.10;10.73;;;-3276.30;70.10;;;;;;6347330;28;20184;-68
2021/12/23 00:39:39;;;;;;;16.10;10.37;;;-3276.30;69.90;;;;;;6341597;28;20185;-68
2021/12/23 00:42:40;;;;;;;15.93;10.63;;;-3276.20;69.40;;;;;;6333814;28;20257;-68
2021/12/23 00:45:41;;;;;;;14.57;9.63;;;-3276.20;70.20;;;;;;6316233;28;20196;-68
2021/12/23 00:48:42;;;;;;;14.77;9.93;;;-3276.20;69.70;;;;;;6345231;27;20312;-68
2021/12/23 00:51:43;;;;;;;16.40;10.70;;;-3276.10;70.00;;;;;;6323136;28;20256;-70
2021/12/23 00:54:44;;;;;;;14.90;10.83;;;-3276.00;70.70;;;;;;6333195;28;20190;-70
2021/12/23 00:57:44;;;;;;;15.87;10.83;;;-3275.90;71.30;;;;;;6322638;28;20192;-70
2021/12/23 01:00:46;;;;;;;15.73;10.50;;;-3275.90;71.40;;;;;;6332261;28;20192;-69
2021/12/23 01:03:47;;;;;;;15.90;9.97;;;-3275.70;72.20;;;;;;6335323;28;20284;-70
2021/12/23 01:06:48;;;;;;;16.70;11.10;;;-3275.60;72.20;;;;;;6325822;28;20195;-69
2021/12/23 01:09:49;;;;;;;15.00;10.07;;;-3275.60;71.90;;;;;;6348397;28;20260;-70
2021/12/23 01:12:56;;;;;;;18.03;11.03;;;-3275.60;72.30;;;;;;6324634;28;20230;-69
2021/12/23 01:16:13;;;;;;;17.87;11.20;;;-3275.50;72.60;;;;;;6344050;28;20181;-69
2021/12/23 01:19:17;;;;;;;19.03;11.37;;;-3275.50;72.60;;;;;;6333256;28;20193;-69
2021/12/23 01:22:18;;;;;;;20.60;11.33;;;-3275.50;72.80;;;;;;6342523;28;20204;-70
2021/12/23 01:25:19;;;;;;;15.83;11.43;;;-3275.40;72.70;;;;;;6332815;28;20204;-69
2021/12/23 01:28:21;;;;;;;21.13;12.90;;;-3275.30;73.60;;;;;;6323574;28;20192;-69
2021/12/23 01:31:24;;;;;;;20.67;13.37;;;-3275.30;73.70;;;;;;6326125;28;20279;-69
2021/12/23 01:34:24;;;;;;;16.97;11.90;;;-3275.30;73.50;;;;;;6341314;28;20190;-70
2021/12/23 01:37:25;;;;;;;21.33;13.20;;;-3275.20;73.80;;;;;;6340867;28;20193;-70
2021/12/23 01:40:27;;;;;;;21.90;12.43;;;-3275.10;74.30;;;;;;6332583;28;20189;-70
2021/12/23 01:43:28;;;;;;;17.23;12.17;;;-3275.00;74.40;;;;;;6323709;28;20201;-69
2021/12/23 01:46:29;;;;;;;19.37;12.53;;;-3275.10;74.30;;;;;;6329660;28;20188;-68
2021/12/23 01:49:31;;;;;;;22.93;13.03;;;-3275.00;74.60;;;;;;6332841;28;20183;-69
2021/12/23 01:52:32;;;;;;;23.67;13.30;;;-3275.00;74.80;;;;;;6348853;27;20272;-69
2021/12/23 01:55:35;;;;;;;20.93;13.57;;;-3274.90;75.00;;;;;;6314901;28;20191;-69
2021/12/23 01:58:41;;;;;;;18.47;13.37;;;-3274.90;74.80;;;;;;6324151;28;20196;-69
2021/12/23 02:01:44;;;;;;;18.57;12.63;;;-3274.80;75.20;;;;;;6365203;27;20665;-69
2021/12/23 02:04:45;;;;;;;17.27;12.17;;;-3274.80;75.20;;;;;;6307945;28;20189;-69
2021/12/23 02:07:45;;;;;;;19.10;12.80;;;-3274.70;75.50;;;;;;6318105;28;20223;-69
2021/12/23 02:10:46;;;;;;;18.27;12.20;;;-3274.70;75.00;;;;;;6327997;28;20241;-68
2021/12/23 02:13:48;;;;;;;20.40;12.00;;;-3274.60;75.60;;;;;;6296889;28;20193;-70
2021/12/23 02:16:49;;;;;;;21.03;12.50;;;-3274.60;75.60;;;;;;6335152;28;20188;-70
2021/12/23 02:19:54;;;;;;;18.97;11.67;;;-3274.60;75.20;;;;;;6329227;28;20186;-69
2021/12/23 02:22:55;;;;;;;17.83;10.40;;;-3274.50;75.60;;;;;;6338021;28;20213;-69
2021/12/23 02:25:58;;;;;;;20.70;11.50;;;-3274.60;74.90;;;;;;6292771;28;20193;-69
2021/12/23 02:28:58;;;;;;;21.63;11.80;;;-3274.60;74.30;;;;;;6342478;28;20200;-69
2021/12/23 02:31:59;;;;;;;22.00;12.50;;;-3274.50;75.10;;;;;;6319917;28;20217;-68
2021/12/23 02:35:00;;;;;;;16.00;10.57;;;-3274.40;75.30;;;;;;6330561;28;20225;-68
2021/12/23 02:38:01;;;;;;;15.73;10.10;;;-3274.40;75.70;;;;;;6322738;28;20200;-68
2021/12/23 02:41:02;;;;;;;18.33;10.70;;;-3274.50;74.00;;;;;;6323423;28;20202;-68
2021/12/23 02:44:03;;;;;;;16.93;11.30;;;-3274.50;74.00;;;;;;6296466;28;20191;-69
2021/12/23 02:47:05;;;;;;;14.47;10.57;;;-3274.50;74.00;;;;;;6330752;28;20188;-68
2021/12/23 02:50:07;;;;;;;15.07;10.37;;;-3274.40;74.60;;;;;;6331045;28;20194;-69
2021/12/23 02:53:08;;;;;;;15.73;10.10;;;-3274.30;74.70;;;;;;6339437;28;20208;-68
2021/12/23 02:56:14;;;;;;;16.13;10.87;;;-3274.30;74.60;;;;;;6322866;28;20196;-69
2021/12/23 02:59:14;;;;;;;18.77;11.00;;;-3274.30;74.80;;;;;;6322549;28;20626;-69
2021/12/23 03:02:15;;;;;;;17.47;11.20;;;-3274.20;74.70;;;;;;6340254;28;20296;-68
2021/12/23 03:05:16;;;;;;;23.67;12.03;;;-3274.20;74.90;;;;;;6314863;28;20213;-69
2021/12/23 03:08:30;;;;;;;14.47;9.90;;;-3274.10;74.90;;;;;;6330928;28;20216;-68
2021/12/23 03:11:32;;;;;;;15.60;11.10;;;-3274.10;75.70;;;;;;6366820;27;20248;-68
2021/12/23 03:14:33;;;;;;;17.43;11.13;;;-3274.00;75.30;;;;;;6332997;28;20193;-68
2021/12/23 03:17:34;;;;;;;16.90;10.83;;;-3274.00;74.40;;;;;;6296426;28;20219;-68
2021/12/23 03:20:35;;;;;;;19.50;11.90;;;-3274.00;74.50;;;;;;6319939;28;20188;-68
2021/12/23 03:23:36;;;;;;;16.07;10.23;;;-3273.90;75.10;;;;;;6330777;28;20192;-68
2021/12/23 03:26:37;;;;;;;17.33;10.50;;;-3273.90;75.20;;;;;;6348231;28;20188;-68
2021/12/23 03:29:38;;;;;;;18.57;10.67;;;-3273.80;75.20;;;;;;6330719;28;20210;-68
2021/12/23 03:32:39;;;;;;;13.87;9.50;;;-3273.80;75.30;;;;;;6327497;28;20224;-68
2021/12/23 03:35:41;;;;;;;17.90;10.80;;;-3273.80;75.50;;;;;;6334041;28;20187;-68
2021/12/23 03:38:41;;;;;;;19.40;11.73;;;-3273.70;75.50;;;;;;6312336;28;20199;-68
2021/12/23 03:41:42;;;;;;;14.77;9.50;;;-3273.70;76.00;;;;;;6341125;28;20193;-67
2021/12/23 03:44:43;;;;;;;16.77;10.70;;;-3273.60;76.40;;;;;;6355457;28;20322;-68
2021/12/23 03:47:48;;;;;;;17.90;10.33;;;-3273.50;76.40;;;;;;6333389;28;20260;-68
2021/12/23 03:50:49;;;;;;;15.87;9.87;;;-3273.50;76.30;;;;;;6352043;27;20224;-69
2021/12/23 03:53:50;;;;;;;15.17;9.80;;;-3273.50;76.30;;;;;;6317295;28;20186;-69
2021/12/23 03:56:51;;;;;;;17.03;10.70;;;-3273.40;76.20;;;;;;6347965;27;20269;-68
2021/12/23 03:59:51;;;;;;;18.03;10.87;;;-3273.30;76.40;;;;;;6335384;28;20187;-68
2021/12/23 04:02:54;;;;;;;21.67;11.30;;;-3273.40;76.20;;;;;;6326987;28;20196;-68
2021/12/23 04:05:55;;;;;;;18.70;11.23;;;-3273.40;76.60;;;;;;6334534;28;20196;-68
2021/12/23 04:08:56;;;;;;;16.33;10.07;;;-3273.30;76.40;;;;;;6330792;28;20634;-68
2021/12/23 04:11:57;;;;;;;19.60;10.47;;;-3273.20;76.80;;;;;;6311403;28;20266;-68
2021/12/23 04:14:58;;;;;;;19.67;9.83;;;-3273.20;76.90;;;;;;6333138;28;20186;-68
2021/12/23 04:17:58;;;;;;;15.83;10.53;;;-3273.20;77.00;;;;;;6339629;28;20283;-68
2021/12/23 04:20:59;;;;;;;15.77;10.57;;;-3273.20;77.10;;;;;;6347373;27;20196;-68
2021/12/23 04:24:01;;;;;;;14.27;9.57;;;-3273.20;77.10;;;;;;6315995;28;20203;-68
2021/12/23 04:27:01;;;;;;;17.33;10.53;;;-3273.20;77.40;;;;;;6365673;27;20238;-68
2021/12/23 04:30:05;;;;;;;14.57;9.90;;;-3273.30;77.00;;;;;;6315197;28;20615;-68
2021/12/23 04:33:06;;;;;;;18.03;10.53;;;-3273.30;77.60;;;;;;6371107;27;20205;-68
2021/12/23 04:36:08;;;;;;;18.90;10.47;;;-3273.30;76.80;;;;;;6333960;28;20613;-68
2021/12/23 04:39:09;;;;;;;19.00;11.23;;;-3273.30;77.30;;;;;;6315751;28;20185;-67
2021/12/23 04:42:09;;;;;;;17.47;10.60;;;-3273.30;77.50;;;;;;6330432;28;21209;-66
2021/12/23 04:45:10;;;;;;;15.87;11.57;;;-3273.30;77.60;;;;;;6333697;28;20289;-66
2021/12/23 04:48:11;;;;;;;20.37;11.47;;;-3273.30;77.80;;;;;;6332659;28;20192;-66
2021/12/23 04:51:13;;;;;;;16.93;10.73;;;-3273.30;78.10;;;;;;6312313;28;20681;-66
2021/12/23 04:54:13;;;;;;;19.10;11.50;;;-3273.30;76.90;;;;;;6352126;27;20253;-66
2021/12/23 04:57:14;;;;;;;14.67;9.93;;;-3273.30;76.70;;;;;;6354485;27;20626;-66
2021/12/23 05:00:19;;;;;;;17.33;10.90;;;-3273.30;76.60;;;;;;6348677;27;20187;-66
2021/12/23 05:03:23;;;;;;;17.00;10.73;;;-3273.30;77.10;;;;;;6347695;28;20618;-66
2021/12/23 05:06:25;;;;;;;15.20;10.23;;;-3273.30;76.90;;;;;;6317256;28;20622;-66
2021/12/23 05:09:25;;;;;;;17.57;10.47;;;-3273.30;76.60;;;;;;6332509;28;20593;-66
2021/12/23 05:12:27;;;;;;;16.57;10.37;;;-3273.10;77.80;;;;;;6324645;28;21242;-66
2021/12/23 05:15:28;;;;;;;17.00;10.43;;;-3273.00;77.40;;;;;;6329424;28;20253;-66
2021/12/23 05:18:29;;;;;;;18.03;10.33;;;-3273.10;77.40;;;;;;6320847;28;20623;-66
2021/12/23 05:21:30;;;;;;;17.70;11.17;;;-3273.10;77.80;;;;;;6337002;28;20196;-66
2021/12/23 05:24:32;;;;;;;18.40;10.63;;;-3273.10;77.20;;;;;;6315510;28;20195;-66
2021/12/23 05:27:32;;;;;;;17.53;10.40;;;-3273.10;76.90;;;;;;6307737;27;20645;-67
2021/12/23 05:30:33;;;;;;;19.73;10.27;;;-3273.20;76.70;;;;;;6314920;28;20619;-66
2021/12/23 05:33:34;;;;;;;20.03;10.77;;;-3273.20;77.10;;;;;;6354284;27;20193;-66
2021/12/23 05:36:35;;;;;;;16.40;9.57;;;-3273.10;77.20;;;;;;6326186;28;20250;-66
2021/12/23 05:39:37;;;;;;;16.97;10.43;;;-3273.10;77.30;;;;;;6345639;27;20278;-66
2021/12/23 05:42:38;;;;;;;19.40;10.97;;;-3273.00;77.80;;;;;;6321024;28;20196;-66
2021/12/23 05:45:38;;;;;;;17.90;9.80;;;-3273.00;77.60;;;;;;6316681;28;20611;-66
2021/12/23 05:48:39;;;;;;;15.63;10.63;;;-3272.90;77.70;;;;;;6342745;27;20279;-67
2021/12/23 05:51:40;;;;;;;16.90;10.77;;;-3272.90;77.70;;;;;;6323120;28;20216;-65
2021/12/23 05:54:41;;;;;;;18.40;9.93;;;-3272.90;77.40;;;;;;6302115;28;20203;-65
2021/12/23 05:57:43;;;;;;;16.27;10.30;;;-3273.00;77.50;;;;;;6341470;28;20220;-65
2021/12/23 06:00:43;;;;;;;15.57;10.60;;;-3272.90;77.20;;;;;;6359590;27;20191;-65
2021/12/23 06:03:46;;;;;;;14.47;10.57;;;-3272.80;77.10;;;;;;6323825;28;20613;-65
2021/12/23 06:06:47;;;;;;;18.43;11.17;;;-3272.80;77.70;;;;;;6304225;28;20196;-64
2021/12/23 06:09:48;;;;;;;18.60;11.40;;;-3272.80;77.90;;;;;;6330069;28;20733;-64
2021/12/23 06:12:48;;;;;;;17.30;10.27;;;-3272.80;77.70;;;;;;6324059;28;20249;-64
2021/12/23 06:15:49;;;;;;;18.87;11.00;;;-3272.90;77.60;;;;;;6331298;28;20232;-65
2021/12/23 06:18:50;;;;;;;14.90;9.40;;;-3272.90;77.60;;;;;;6316046;28;20195;-65
2021/12/23 06:21:52;;;;;;;17.30;9.53;;;-3272.80;76.90;;;;;;6346587;27;20224;-65
2021/12/23 06:24:54;;;;;;;16.23;11.17;;;-3272.80;77.20;;;;;;6322183;28;20264;-64
2021/12/23 06:27:55;;;;;;;18.23;11.13;;;-3272.80;77.50;;;;;;6328002;28;20617;-65
2021/12/23 06:30:55;;;;;;;17.47;10.90;;;-3272.90;77.40;;;;;;6328461;28;20644;-65
2021/12/23 06:33:56;;;;;;;15.23;9.93;;;-3272.80;77.30;;;;;;6345330;28;20203;-65
2021/12/23 06:36:57;;;;;;;16.80;9.57;;;-3272.80;77.40;;;;;;6377975;27;20183;-65
2021/12/23 06:39:59;;;;;;;16.27;10.27;;;-3272.80;77.30;;;;;;6345130;28;20191;-65
2021/12/23 06:43:00;;;;;;;19.47;9.97;;;-3272.70;77.60;;;;;;6331088;28;21139;-65
2021/12/23 06:46:02;;;;;;;14.70;9.90;;;-3272.70;77.90;;;;;;6330672;28;20633;-65
2021/12/23 06:49:03;;;;;;;16.57;10.93;;;-3272.80;77.80;;;;;;6324924;28;20615;-65
2021/12/23 06:52:04;;;;;;;14.23;10.53;;;-3272.80;77.10;;;;;;6354207;28;20694;-66
2021/12/23 06:55:08;;;;;;;17.60;10.83;;;-3272.80;77.40;;;;;;6314725;28;20194;-66
2021/12/23 06:58:08;;;;;;;16.23;10.10;;;-3272.80;77.50;;;;;;6326432;28;20625;-67
2021/12/23 07:01:09;;;;;;;17.83;11.00;;;-3272.80;77.80;;;;;;6321887;28;20611;-65
2021/12/23 07:04:18;;;;;;;18.07;11.37;;;-3272.80;77.60;;;;;;6342384;28;20202;-65
2021/12/23 07:07:28;;;;;;;19.23;11.57;;;-3272.80;77.50;;;;;;6332141;28;20267;-65
2021/12/23 07:10:30;;;;;;;17.13;11.33;;;-3272.80;77.90;;;;;;6330042;28;20678;-65
2021/12/23 07:13:32;;;;;;;14.83;10.00;;;-3272.80;78.10;;;;;;6364786;28;20668;-65
2021/12/23 07:16:33;;;;;;;20.20;11.53;;;-3272.90;78.20;;;;;;6344514;28;20601;-65
2021/12/23 07:19:35;;;;;;;17.53;11.83;;;-3273.00;79.00;;;;;;6322265;28;20614;-65
2021/12/23 07:22:36;;;;;;;19.77;12.70;;;-3273.00;78.70;;;;;;6335735;28;20621;-65
2021/12/23 07:25:37;;;;;;;17.97;11.00;;;-3273.00;78.50;;;;;;6369632;27;20600;-65
2021/12/23 07:28:37;;;;;;;22.93;12.63;;;-3273.00;78.30;;;;;;6350502;27;20255;-65
2021/12/23 07:31:38;;;;;;;21.37;11.87;;;-3273.10;78.30;;;;;;6326120;28;20217;-65
2021/12/23 07:34:40;;;;;;;21.60;13.27;;;-3273.20;77.80;;;;;;6292062;28;20188;-65
2021/12/23 07:37:43;;;;;;;16.60;10.77;;;-3273.20;78.10;;;;;;6335881;28;20200;-65
2021/12/23 07:40:44;;;;;;;15.83;10.27;;;-3273.30;77.60;;;;;;6348623;28;20620;-66
2021/12/23 07:43:55;;;;;;;18.63;11.67;;;-3273.40;77.60;;;;;;6333129;28;20604;-66
2021/12/23 07:46:58;;;;;;;16.17;10.33;;;-3273.30;78.30;;;;;;6334657;28;20192;-66
2021/12/23 07:49:59;;;;;;;18.07;10.87;;;-3273.50;78.30;;;;;;6341117;28;20606;-66
2021/12/23 07:52:59;;;;;;;16.17;9.60;;;-3273.60;78.00;;;;;;6307217;28;20678;-66
2021/12/23 07:56:00;;;;;;;16.70;11.13;;;-3273.70;77.60;;;;;;6298494;28;20200;-66
2021/12/23 07:59:01;;;;;;;16.17;10.20;;;-3273.70;77.10;;;;;;6325667;28;20196;-66
2021/12/23 08:02:03;;;;;;;17.43;10.47;;;-3273.70;77.20;;;;;;6325267;28;20191;-66
2021/12/23 08:05:04;;;;;;;20.13;10.90;;;-3273.70;76.50;;;;;;6343267;28;20601;-65
2021/12/23 08:08:05;;;;;;;15.93;10.03;;;-3273.80;76.50;;;;;;6350913;27;20197;-66
2021/12/23 08:11:06;;;;;;;17.20;10.53;;;-3273.80;76.90;;;;;;6336188;28;20667;-66
2021/12/23 08:14:07;;;;;;;20.20;11.33;;;-3273.80;76.50;;;;;;6324936;28;20188;-66
2021/12/23 08:17:08;;;;;;;17.20;10.43;;;-3273.80;76.50;;;;;;6300322;28;20200;-64
2021/12/23 08:20:13;;;;;;;12.63;9.80;;;-3273.90;76.20;;;;;;6325727;28;20200;-67
2021/12/23 08:23:14;;;;;;;18.67;10.83;;;-3274.10;76.10;;;;;;6366819;27;20189;-66
2021/12/23 08:26:16;;;;;;;18.67;11.40;;;-3274.10;75.50;;;;;;6328801;28;20199;-66
2021/12/23 08:29:19;;;;;;;14.57;9.87;;;-3274.20;72.60;;;;;;6318502;28;20542;-66
2021/12/23 08:32:21;;;;;;;15.57;10.63;;;-3274.20;72.90;;;;;;6355471;27;20216;-66
2021/12/23 08:35:22;;;;;;;18.53;9.93;;;-3274.30;73.20;;;;;;6363658;27;20212;-66
2021/12/23 08:38:23;;;;;;;15.60;10.13;;;-3274.40;72.60;;;;;;6367997;27;20606;-66
2021/12/23 08:41:23;;;;;;;15.03;10.17;;;-3274.40;72.40;;;;;;6333937;28;20196;-66
2021/12/23 08:44:24;;;;;;;15.10;9.97;;;-3274.50;72.70;;;;;;6333880;28;20197;-66
2021/12/23 08:47:25;;;;;;;17.33;10.50;;;-3274.50;71.40;;;;;;6364754;27;20220;-66
2021/12/23 08:50:29;;;;;;;14.47;9.97;;;-3274.50;70.10;;;;;;6331737;28;20275;-66
2021/12/23 08:53:29;;;;;;;14.97;9.93;;;-3274.60;70.00;;;;;;6377263;27;20244;-66
2021/12/23 08:56:30;;;;;;;16.47;10.13;;;-3274.70;71.50;;;;;;6331997;28;20279;-66
2021/12/23 08:59:32;;;;;;;17.37;9.27;;;-3274.70;70.70;;;;;;6312621;28;20199;-66
2021/12/23 09:02:33;;;;;;;18.67;11.70;;;-3274.80;70.40;;;;;;6339351;28;20275;-66
2021/12/23 09:05:36;;;;;;;16.80;10.67;;;-3274.80;72.50;;;;;;6348709;27;20184;-66
2021/12/23 09:08:37;;;;;;;16.67;10.27;;;-3274.90;70.80;;;;;;6346622;28;20279;-66
2021/12/23 09:11:38;;;;;;;17.57;11.10;;;-3275.00;70.70;;;;;;6348221;28;20266;-66
2021/12/23 09:14:39;;;;;;;18.73;10.17;;;-3275.00;69.90;;;;;;6364902;27;20188;-66
2021/12/23 09:17:40;;;;;;;19.27;10.97;;;-3275.00;70.70;;;;;;6347858;28;20279;-66
2021/12/23 09:20:41;;;;;;;19.13;10.47;;;-3275.10;71.30;;;;;;6346519;28;20712;-66
2021/12/23 09:23:42;;;;;;;16.70;10.63;;;-3275.20;70.30;;;;;;6329828;28;20246;-66
2021/12/23 09:27:38;;;;;;;16.53;11.70;;;-3275.30;70.40;;;;;;6328955;27;20190;-66
2021/12/23 09:33:25;;;;;;;19.03;11.47;;;-3275.50;68.90;;;;;;6307125;28;20225;-66
2021/12/23 09:36:26;;;;;;;16.47;10.60;;;-3275.50;69.10;;;;;;6339669;28;20208;-66
2021/12/23 09:39:27;;;;;;;16.20;9.87;;;-3275.60;67.30;;;;;;6321000;28;20278;-66
2021/12/23 09:42:33;;;;;;;20.00;11.53;;;-3275.70;68.10;;;;;;6288725;28;20193;-67
2021/12/23 09:45:37;;;;;;;18.17;10.93;;;-3275.70;67.20;;;;;;6356165;27;20198;-67
2021/12/23 09:48:42;;;;;;;19.30;11.03;;;-3275.90;68.00;;;;;;6338566;28;20194;-67
2021/12/23 09:51:44;;;;;;;17.60;10.37;;;-3276.00;66.50;;;;;;6354349;27;20247;-67
2021/12/23 09:54:44;;;;;;;14.47;9.63;;;-3275.90;67.30;;;;;;6312103;28;20250;-67
2021/12/23 09:57:47;;;;;;;18.53;11.10;;;-3275.90;66.60;;;;;;6328089;28;20223;-67
2021/12/23 10:00:48;;;;;;;16.90;11.33;;;-3275.90;67.10;;;;;;6346023;28;20188;-67
2021/12/23 10:03:49;;;;;;;19.20;11.67;;;-3276.10;66.80;;;;;;6329448;28;20181;-67
2021/12/23 10:06:51;;;;;;;18.07;10.90;;;-3276.20;66.40;;;;;;6331070;28;20185;-67
2021/12/23 10:10:03;;;;;;;22.40;11.43;;;-3276.20;66.80;;;;;;6330563;28;20238;-67
2021/12/23 10:27:01;;;;;;;18.27;10.63;;;-3276.00;66.10;;;;;;6329865;28;20217;-67
2021/12/23 10:39:49;;;;;;;16.97;10.67;;;-3276.30;65.80;;;;;;6330736;28;20290;-67
2021/12/23 10:42:51;;;;;;;19.30;10.73;;;-3276.50;65.70;;;;;;6326561;28;20639;-67
2021/12/23 10:45:56;;;;;;;14.43;10.13;;;-3276.50;66.10;;;;;;6328264;28;20199;-67
2021/12/23 10:52:23;;;;;;;16.90;10.13;;;-3276.60;66.30;;;;;;6346342;28;20310;-67
2021/12/23 10:58:25;;;;;;;21.10;10.50;;;-3276.70;64.30;;;;;;6309497;28;20270;-67
2021/12/23 11:01:26;;;;;;;21.57;10.23;;;0.00;63.50;;;;;;6309629;28;20278;-67
2021/12/23 11:04:27;;;;;;;18.70;10.30;;;0.10;62.80;;;;;;6301256;28;20255;-67
2021/12/23 11:11:18;;;;;;;14.27;9.77;;;0.00;63.80;;;;;;6372196;27;20268;-67
2021/12/23 11:41:38;;;;;;;15.37;10.53;;;0.30;62.30;;;;;;6363822;27;20211;-67
2021/12/23 11:44:40;;;;;;;15.23;10.50;;;0.40;62.40;;;;;;6347118;28;20256;-68
2021/12/23 11:47:41;;;;;;;16.70;9.27;;;0.30;60.40;;;;;;6318216;28;20183;-68
2021/12/23 11:54:04;;;;;;;16.13;10.67;;;0.30;62.10;;;;;;6384280;27;20588;-68
2021/12/23 11:57:10;;;;;;;21.47;11.80;;;0.30;60.50;;;;;;6327941;28;20192;-68
2021/12/23 12:00:20;;;;;;;20.10;13.53;;;0.30;60.30;;;;;;6350338;28;20198;-68
2021/12/23 12:03:21;;;;;;;23.03;13.63;;;0.30;62.60;;;;;;6330029;28;20258;-68
2021/12/23 12:06:39;;;;;;;25.30;12.87;;;0.30;62.60;;;;;;6330479;28;20226;-67
2021/12/23 12:09:58;;;;;;;22.93;12.37;;;0.40;63.60;;;;;;6326069;28;20235;-67
2021/12/23 12:13:04;;;;;;;21.20;12.20;;;0.20;62.00;;;;;;6360137;27;20219;-67
2021/12/23 12:16:29;;;;;;;22.97;13.50;;;0.40;61.80;;;;;;6352149;28;20207;-67
2021/12/23 12:19:56;;;;;;;19.93;12.73;;;0.60;62.50;;;;;;6350914;28;20191;-66
2021/12/23 12:23:01;;;;;;;23.50;13.17;;;0.60;61.30;;;;;;6341866;28;20207;-67
2021/12/23 12:26:02;;;;;;;23.17;14.23;;;0.60;61.80;;;;;;6365061;27;20200;-67
2021/12/23 12:29:08;;;;;;;27.43;14.73;;;0.50;62.30;;;;;;6350696;28;20197;-67
2021/12/23 12:32:35;;;;;;;32.57;13.43;;;0.50;62.20;;;;;;6309594;28;20227;-67
2021/12/23 12:35:37;;;;;;;25.93;13.57;;;0.50;63.20;;;;;;6334708;28;20208;-67
2021/12/23 12:38:47;;;;;;;22.03;15.00;;;0.40;63.70;;;;;;6302358;28;20195;-67
2021/12/23 12:41:48;;;;;;;21.00;13.00;;;0.50;63.50;;;;;;6349787;27;20254;-67
2021/12/23 12:45:01;;;;;;;27.43;14.47;;;0.50;63.90;;;;;;6325586;28;20188;-67
2021/12/23 12:48:04;;;;;;;24.07;13.17;;;0.50;63.70;;;;;;6341239;28;20188;-67
2021/12/23 12:51:19;;;;;;;22.27;13.63;;;0.40;63.40;;;;;;6328574;27;20288;-67
2021/12/23 12:54:34;;;;;;;25.17;13.83;;;0.30;63.60;;;;;;6370683;27;20283;-67
2021/12/23 12:57:43;;;;;;;23.17;13.60;;;0.40;63.80;;;;;;6329088;28;20186;-67
2021/12/23 13:00:43;;;;;;;29.67;15.60;;;0.50;64.20;;;;;;6359726;27;20197;-67
2021/12/23 13:03:54;;;;;;;21.47;14.50;;;0.40;63.70;;;;;;6342189;27;20208;-67
2021/12/23 13:06:56;;;;;;;20.43;13.80;;;0.30;64.10;;;;;;6348548;28;20605;-67
2021/12/23 13:10:20;;;;;;;23.43;15.00;;;0.30;65.10;;;;;;6335875;28;20240;-67
2021/12/23 13:13:45;;;;;;;24.80;14.53;;;0.30;64.20;;;;;;6336196;28;20202;-67
2021/12/23 13:17:07;;;;;;;28.13;14.07;;;0.20;65.00;;;;;;6328469;28;20218;-67
2021/12/23 13:20:08;;;;;;;22.93;14.77;;;0.30;65.30;;;;;;6349808;28;20228;-67
2021/12/23 13:23:43;;;;;;;24.83;13.63;;;0.30;64.40;;;;;;6307543;28;20241;-67
2021/12/23 13:26:44;;;;;;;22.53;13.37;;;0.30;64.20;;;;;;6316291;28;20227;-67
2021/12/23 13:29:45;;;;;;;28.73;15.10;;;0.30;63.90;;;;;;6350611;28;20239;-67
2021/12/23 13:33:01;;;;;;;24.03;14.50;;;0.20;64.30;;;;;;6311315;28;20311;-67
2021/12/23 13:36:02;;;;;;;25.83;14.47;;;0.30;64.00;;;;;;6337203;28;20199;-67
2021/12/23 13:39:14;;;;;;;26.03;13.80;;;0.40;64.30;;;;;;6332882;28;20195;-67
2021/12/23 13:42:15;;;;;;;27.30;14.33;;;0.30;63.50;;;;;;6341766;28;20189;-68
2021/12/23 13:45:16;;;;;;;18.73;13.23;;;0.30;63.40;;;;;;6310249;28;20199;-67
2021/12/23 13:48:17;;;;;;;21.47;14.27;;;0.20;64.60;;;;;;6332009;28;20231;-67
2021/12/23 13:51:21;;;;;;;27.83;17.20;;;0.30;64.40;;;;;;6334733;28;20233;-67
2021/12/23 13:54:21;;;;;;;26.70;15.03;;;0.30;64.20;;;;;;6323501;28;20196;-67
2021/12/23 13:57:24;;;;;;;24.30;14.37;;;0.30;64.70;;;;;;6321696;28;20283;-66
2021/12/23 14:00:33;;;;;;;27.43;15.67;;;0.20;64.70;;;;;;6339365;28;20331;-66
2021/12/23 14:03:34;;;;;;;26.33;14.07;;;0.10;64.70;;;;;;6361378;27;20199;-65
2021/12/23 14:06:35;;;;;;;29.60;17.17;;;0.10;64.50;;;;;;6346118;28;20226;-67
2021/12/23 14:09:39;;;;;;;17.77;13.40;;;0.10;64.70;;;;;;6328564;28;20259;-66
2021/12/23 14:12:48;;;;;;;22.07;14.13;;;0.10;64.90;;;;;;6345116;28;20204;-67
2021/12/23 14:15:51;;;;;;;22.07;14.37;;;0.20;65.40;;;;;;6327849;28;20233;-68
2021/12/23 14:19:10;;;;;;;25.40;14.47;;;0.20;64.30;;;;;;6347373;28;20177;-67
2021/12/23 14:25:30;;;;;;;23.27;13.03;;;0.10;64.30;;;;;;6341685;27;20208;-66
2021/12/23 14:29:06;;;;;;;22.43;13.03;;;0.10;65.50;;;;;;6337638;28;20202;-66
2021/12/23 14:32:07;;;;;;;25.07;14.27;;;0.10;65.20;;;;;;6298580;28;20378;-67
2021/12/23 14:35:26;;;;;;;28.70;14.53;;;0.10;65.90;;;;;;6328775;28;20184;-67
2021/12/23 14:38:32;;;;;;;27.47;12.97;;;0.10;66.10;;;;;;6315220;28;20201;-67
2021/12/23 14:41:49;;;;;;;31.30;14.47;;;0.10;65.20;;;;;;6347103;28;20184;-66
2021/12/23 14:45:02;;;;;;;24.17;13.80;;;0.10;66.50;;;;;;6322570;28;20227;-66
2021/12/23 14:48:18;;;;;;;26.67;13.67;;;0.10;67.10;;;;;;6351685;28;20223;-66
2021/12/23 14:51:23;;;;;;;24.10;13.97;;;0.00;65.50;;;;;;6343404;28;20199;-67
2021/12/23 14:54:25;;;;;;;21.97;13.67;;;0.00;66.90;;;;;;6320989;28;20188;-67
2021/12/23 14:57:27;;;;;;;23.90;13.30;;;0.00;66.80;;;;;;6320794;28;20238;-67
2021/12/23 15:00:33;;;;;;;22.23;13.57;;;0.00;66.20;;;;;;6342118;28;20211;-66
2021/12/23 15:03:33;;;;;;;28.83;15.60;;;0.00;66.30;;;;;;6328784;28;20179;-66
2021/12/23 15:07:01;;;;;;;14.47;8.13;;;0.00;67.10;;;;;;6336052;28;20200;-70
2021/12/23 15:10:03;;;;;;;21.40;11.70;;;0.10;66.60;;;;;;6324530;28;20257;-70
2021/12/23 15:13:22;;;;;;;27.60;14.47;;;0.00;67.00;;;;;;6331465;28;20306;-70
2021/12/23 15:16:29;;;;;;;16.20;9.93;;;0.10;66.90;;;;;;6329762;28;20203;-70
2021/12/23 15:19:38;;;;;;;13.23;8.17;;;0.10;65.90;;;;;;6304689;28;20209;-70
2021/12/23 15:22:45;;;;;;;15.70;7.83;;;0.00;66.30;;;;;;6337860;28;20706;-70
2021/12/23 15:25:45;;;;;;;20.60;12.93;;;0.10;66.30;;;;;;6345672;28;20218;-71
2021/12/23 15:29:09;;;;;;;21.53;10.60;;;0.00;67.00;;;;;;6329016;28;20219;-70
2021/12/23 15:32:24;;;;;;;20.93;12.17;;;-3276.60;68.10;;;;;;6356226;28;20208;-70
2021/12/23 15:35:30;;;;;;;11.30;6.90;;;-3276.50;69.10;;;;;;6344478;28;20286;-70
2021/12/23 15:38:30;;;;;;;18.63;11.83;;;-3276.70;68.00;;;;;;6356316;28;20196;-71
2021/12/23 15:41:31;;;;;;;14.50;9.60;;;-3276.70;67.90;;;;;;6323638;28;20197;-71
2021/12/23 15:44:35;;;;;;;20.90;12.00;;;-3276.60;69.30;;;;;;6306081;28;20201;-68
2021/12/23 15:47:37;;;;;;;23.70;13.57;;;-3276.50;70.20;;;;;;6364395;27;20199;-67
2021/12/23 15:50:38;;;;;;;20.87;12.43;;;-3276.50;69.80;;;;;;6336153;28;20232;-66
2021/12/23 15:53:39;;;;;;;12.03;7.90;;;-3276.60;69.10;;;;;;6348480;28;20230;-67
2021/12/23 15:56:40;;;;;;;15.80;9.53;;;-3276.70;68.70;;;;;;6354387;27;20191;-70
2021/12/23 15:59:42;;;;;;;14.90;7.27;;;-3276.70;68.40;;;;;;6375063;27;20199;-66
2021/12/23 16:02:44;;;;;;;25.63;13.37;;;-3276.70;68.50;;;;;;6326648;28;20289;-67
2021/12/23 16:08:46;;;;;;;11.57;7.00;;;-3276.40;70.00;;;;;;6335188;28;20244;-67
2021/12/23 16:11:48;;;;;;;21.33;12.23;;;-3276.50;69.60;;;;;;6351679;28;20668;-67
2021/12/23 16:14:52;;;;;;;15.67;8.93;;;-3276.60;69.30;;;;;;6326559;28;20305;-68
2021/12/23 16:17:53;;;;;;;24.40;14.77;;;-3276.70;69.20;;;;;;6369422;27;20203;-66
2021/12/23 16:20:54;;;;;;;12.57;8.37;;;-3276.60;70.00;;;;;;6326419;28;20200;-68
2021/12/23 16:23:55;;;;;;;26.23;14.57;;;-3276.50;69.60;;;;;;6333680;28;20202;-67
2021/12/23 16:26:56;;;;;;;19.87;9.80;;;-3276.40;70.30;;;;;;6335891;28;20195;-67
2021/12/23 16:30:12;;;;;;;18.37;9.03;;;-3276.50;70.00;;;;;;6298718;28;20214;-66